Time;durP1;ratioP1;P1;durP2;ratioP2;P2;SDS_P1;SDS_P2;PMS_P1;PMS_P2;Temp;Humidity;BMP_temperature;BMP_pressure;BME280_temperature;BME280_humidity;BME280_pressure;Samples;Min_cycle;Max_cycle;Signal;HPM_P1;HPM_P2
2022/12/02 00:00:38;;;;;;;;;;;16.30;68.50;;;;;;10342087;28;19934;-60
2022/12/02 00:05:39;;;;;;;;;;;16.30;68.50;;;;;;10341928;28;20411;-60
2022/12/02 00:10:42;;;;;;;;;;;16.20;68.40;;;;;;10341176;28;20052;-60
2022/12/02 00:15:45;;;;;;;;;;;16.20;68.30;;;;;;10342335;28;20040;-60
2022/12/02 00:20:47;;;;;;;;;;;16.20;68.20;;;;;;10341685;28;19982;-60
2022/12/02 00:25:50;;;;;;;;;;;16.20;68.20;;;;;;10342837;28;19956;-60
2022/12/02 00:30:52;;;;;;;;;;;16.20;68.20;;;;;;10341578;28;20021;-59
2022/12/02 00:35:54;;;;;;;;;;;16.20;68.30;;;;;;10341571;28;19940;-59
2022/12/02 00:40:56;;;;;;;;;;;16.20;68.30;;;;;;10341356;28;19972;-59
2022/12/02 00:51:18;;;;;;;;;;;16.20;68.30;;;;;;10340569;28;20512;-59
2022/12/02 00:56:20;;;;;;;;;;;16.30;68.10;;;;;;10341683;28;20431;-59
2022/12/02 01:01:21;;;;;;;;;;;16.30;68.20;;;;;;10343774;28;19934;-60
2022/12/02 01:06:23;;;;;;;;;;;16.20;68.10;;;;;;10347824;28;20448;-60
2022/12/02 01:11:25;;;;;;;;;;;16.20;68.00;;;;;;10346019;28;20411;-60
2022/12/02 01:16:27;;;;;;;;;;;16.20;68.30;;;;;;10348263;28;19934;-59
2022/12/02 01:21:29;;;;;;;;;;;16.20;68.40;;;;;;10347814;28;20020;-60
2022/12/02 01:26:30;;;;;;;;;;;16.20;68.40;;;;;;10347245;28;19993;-60
2022/12/02 01:31:32;;;;;;;;;;;16.20;68.20;;;;;;10347430;28;20024;-60
2022/12/02 01:36:34;;;;;;;;;;;16.10;68.30;;;;;;10347067;28;19934;-60
2022/12/02 01:41:36;;;;;;;;;;;16.10;68.40;;;;;;10347013;28;20008;-60
2022/12/02 01:46:38;;;;;;;;;;;16.10;67.90;;;;;;10347410;28;19981;-60
2022/12/02 01:51:39;;;;;;;;;;;16.10;67.40;;;;;;10347047;28;19973;-59
2022/12/02 01:56:41;;;;;;;;;;;16.00;67.50;;;;;;10346654;28;19985;-60
2022/12/02 02:06:58;;;;;;;;;;;16.00;67.70;;;;;;10302615;28;19984;-66
2022/12/02 02:12:00;;;;;;;;;;;16.00;67.70;;;;;;10305243;28;20021;-66
2022/12/02 02:17:01;;;;;;;;;;;16.00;67.80;;;;;;10304952;28;20026;-66
2022/12/02 02:22:06;;;;;;;;;;;15.90;67.60;;;;;;10306126;28;19935;-66
2022/12/02 02:27:08;;;;;;;;;;;15.90;67.70;;;;;;10303601;28;19939;-66
2022/12/02 02:32:09;;;;;;;;;;;15.90;68.20;;;;;;10304907;28;19934;-67
2022/12/02 02:37:11;;;;;;;;;;;16.00;68.00;;;;;;10305117;28;20070;-66
2022/12/02 02:42:13;;;;;;;;;;;16.00;67.90;;;;;;10304091;28;19935;-67
2022/12/02 02:47:14;;;;;;;;;;;16.00;67.80;;;;;;10318770;28;20029;-66
2022/12/02 02:52:16;;;;;;;;;;;16.00;67.80;;;;;;10303314;28;20407;-66
2022/12/02 02:57:18;;;;;;;;;;;16.00;67.80;;;;;;10318840;28;20017;-67
2022/12/02 03:02:21;;;;;;;;;;;16.00;67.90;;;;;;10318377;28;20477;-67
2022/12/02 03:07:23;;;;;;;;;;;16.00;67.80;;;;;;10303579;28;19942;-66
2022/12/02 03:12:25;;;;;;;;;;;16.00;67.90;;;;;;10303343;28;19934;-67
2022/12/02 03:17:27;;;;;;;;;;;16.00;67.80;;;;;;10302452;28;20053;-68
2022/12/02 03:22:29;;;;;;;;;;;16.00;67.90;;;;;;10301817;28;20295;-67
2022/12/02 03:27:30;;;;;;;;;;;16.00;68.00;;;;;;10301852;28;20679;-68
2022/12/02 03:32:32;;;;;;;;;;;15.90;67.90;;;;;;10302629;28;20028;-66
2022/12/02 03:37:34;;;;;;;;;;;15.90;67.00;;;;;;10302628;28;20037;-66
2022/12/02 03:42:36;;;;;;;;;;;15.90;67.00;;;;;;10302704;28;19989;-65
2022/12/02 03:47:38;;;;;;;;;;;15.90;67.00;;;;;;10302776;28;19934;-66
2022/12/02 03:52:40;;;;;;;;;;;15.90;67.10;;;;;;10300267;28;20037;-67
2022/12/02 03:57:42;;;;;;;;;;;15.80;67.00;;;;;;10301793;28;19934;-66
2022/12/02 04:02:44;;;;;;;;;;;15.80;67.20;;;;;;10302053;28;20013;-66
2022/12/02 04:07:45;;;;;;;;;;;15.80;67.50;;;;;;10301765;28;19942;-66
2022/12/02 04:12:47;;;;;;;;;;;15.80;67.50;;;;;;10301307;28;20450;-66
2022/12/02 04:17:49;;;;;;;;;;;15.90;67.40;;;;;;10302113;28;20029;-66
2022/12/02 04:22:50;;;;;;;;;;;15.90;67.40;;;;;;10301029;28;19941;-67
2022/12/02 04:27:52;;;;;;;;;;;15.90;67.40;;;;;;10300471;28;19940;-67
2022/12/02 04:32:54;;;;;;;;;;;15.90;67.40;;;;;;10300770;28;20029;-66
2022/12/02 04:37:56;;;;;;;;;;;15.90;67.40;;;;;;10305739;28;19978;-67
2022/12/02 04:42:57;;;;;;;;;;;15.90;67.40;;;;;;10308226;28;19934;-66
2022/12/02 04:47:59;;;;;;;;;;;15.80;67.40;;;;;;10307536;28;19940;-68
2022/12/02 04:53:01;;;;;;;;;;;15.80;67.40;;;;;;10306371;28;20025;-66
2022/12/02 04:58:03;;;;;;;;;;;15.80;67.50;;;;;;10306951;28;19934;-66
2022/12/02 05:03:05;;;;;;;;;;;15.80;67.40;;;;;;10307248;28;20045;-66
2022/12/02 05:08:06;;;;;;;;;;;15.80;67.20;;;;;;10306452;28;19940;-66
2022/12/02 05:13:08;;;;;;;;;;;15.80;66.90;;;;;;10305138;28;20025;-66
2022/12/02 05:18:10;;;;;;;;;;;15.80;66.80;;;;;;10306156;28;20028;-67
2022/12/02 05:23:12;;;;;;;;;;;15.80;66.80;;;;;;10321805;28;20029;-66
2022/12/02 05:28:14;;;;;;;;;;;15.70;66.80;;;;;;10306575;28;19935;-66
2022/12/02 05:33:16;;;;;;;;;;;15.70;66.80;;;;;;10306310;28;19994;-67
2022/12/02 05:38:18;;;;;;;;;;;15.70;67.10;;;;;;10319546;28;19941;-66
2022/12/02 05:43:21;;;;;;;;;;;15.80;67.00;;;;;;10304511;28;19989;-65
2022/12/02 05:48:24;;;;;;;;;;;15.80;67.10;;;;;;10303373;28;19942;-66
2022/12/02 05:53:26;;;;;;;;;;;16.00;66.90;;;;;;10304666;28;19985;-66
2022/12/02 05:58:28;;;;;;;;;;;16.10;66.70;;;;;;10305735;28;19989;-67
2022/12/02 06:03:30;;;;;;;;;;;16.20;66.40;;;;;;10305461;28;19982;-67
2022/12/02 06:08:33;;;;;;;;;;;16.30;66.30;;;;;;10304985;28;19941;-66
2022/12/02 06:13:41;;;;;;;;;;;16.20;66.10;;;;;;10305181;28;19982;-66
2022/12/02 06:18:43;;;;;;;;;;;16.20;66.10;;;;;;10305106;28;20357;-66
2022/12/02 06:23:47;;;;;;;;;;;16.20;66.10;;;;;;10305520;28;19997;-65
2022/12/02 06:28:57;;;;;;;;;;;16.20;66.20;;;;;;10304285;28;20025;-66
2022/12/02 06:34:00;;;;;;;;;;;16.20;66.30;;;;;;10304474;28;19974;-67
2022/12/02 06:39:12;;;;;;;;;;;16.10;66.40;;;;;;10304110;28;19935;-66
2022/12/02 06:49:45;;;;;;;;;;;16.10;66.70;;;;;;10304265;28;20025;-67
2022/12/02 06:54:47;;;;;;;;;;;16.10;66.70;;;;;;10303093;28;20021;-66
2022/12/02 06:59:50;;;;;;;;;;;16.10;67.00;;;;;;10303616;28;19945;-65
2022/12/02 07:04:53;;;;;;;;;;;16.10;67.30;;;;;;10302034;28;19973;-66
2022/12/02 07:09:59;;;;;;;;;;;16.20;67.90;;;;;;10303506;28;19935;-65
2022/12/02 07:15:19;;;;;;;;;;;16.20;67.90;;;;;;10301489;28;19962;-66
2022/12/02 07:20:27;;;;;;;;;;;16.20;67.80;;;;;;10301533;28;20020;-65
2022/12/02 07:25:36;;;;;;;;;;;16.20;67.30;;;;;;10302516;28;20050;-66
2022/12/02 07:30:42;;;;;;;;;;;16.30;67.10;;;;;;10302004;28;19969;-65
2022/12/02 07:35:43;;;;;;;;;;;16.20;67.00;;;;;;10302569;28;19934;-65
2022/12/02 07:40:45;;;;;;;;;;;16.20;67.00;;;;;;10302052;28;19981;-65
2022/12/02 07:45:47;;;;;;;;;;;16.10;67.00;;;;;;10302508;28;19935;-66
2022/12/02 07:50:49;;;;;;;;;;;16.20;67.00;;;;;;10301664;28;20427;-66
2022/12/02 07:55:50;;;;;;;;;;;16.20;67.00;;;;;;10301432;28;19965;-65
2022/12/02 08:00:53;;;;;;;;;;;16.20;66.90;;;;;;10302172;28;20033;-65
2022/12/02 08:05:55;;;;;;;;;;;16.20;66.70;;;;;;10301589;28;19942;-65
2022/12/02 08:10:56;;;;;;;;;;;16.20;66.70;;;;;;10300075;28;19940;-65
2022/12/02 08:15:58;;;;;;;;;;;16.10;66.60;;;;;;10300882;28;19935;-66
2022/12/02 08:21:00;;;;;;;;;;;16.10;66.50;;;;;;10301353;28;19938;-66
2022/12/02 08:26:07;;;;;;;;;;;16.10;66.60;;;;;;10300358;28;19942;-66
2022/12/02 08:31:09;;;;;;;;;;;16.10;66.50;;;;;;10300399;28;19956;-66
2022/12/02 08:36:10;;;;;;;;;;;16.20;66.40;;;;;;10300676;28;20752;-67
2022/12/02 08:41:13;;;;;;;;;;;16.20;66.30;;;;;;10300495;28;20009;-66
2022/12/02 08:46:15;;;;;;;;;;;16.20;66.40;;;;;;10300338;28;19986;-66
2022/12/02 08:51:17;;;;;;;;;;;16.10;66.30;;;;;;10300381;28;19935;-65
2022/12/02 08:56:19;;;;;;;;;;;16.10;66.40;;;;;;10300239;28;20037;-65
2022/12/02 09:01:20;;;;;;;;;;;16.20;66.30;;;;;;10300445;28;19935;-65
2022/12/02 09:06:22;;;;;;;;;;;16.20;66.20;;;;;;10300236;28;19997;-65
2022/12/02 09:11:24;;;;;;;;;;;16.20;66.20;;;;;;10300628;28;19940;-67
2022/12/02 09:16:26;;;;;;;;;;;16.20;66.20;;;;;;10282612;28;20033;-67
2022/12/02 09:21:28;;;;;;;;;;;16.10;66.10;;;;;;10302054;28;20048;-66
2022/12/02 09:26:30;;;;;;;;;;;16.10;66.10;;;;;;10307654;28;19935;-66
2022/12/02 09:31:31;;;;;;;;;;;16.10;66.20;;;;;;10307539;28;20026;-66
2022/12/02 09:36:33;;;;;;;;;;;16.20;66.10;;;;;;10305308;28;19942;-66
2022/12/02 09:41:36;;;;;;;;;;;16.10;66.00;;;;;;10306062;28;19938;-66
2022/12/02 09:46:38;;;;;;;;;;;16.10;66.10;;;;;;10306476;28;20472;-66
2022/12/02 09:51:39;;;;;;;;;;;16.10;66.00;;;;;;10305241;28;20368;-66
2022/12/02 09:56:41;;;;;;;;;;;16.10;66.10;;;;;;10306223;28;20308;-66
2022/12/02 10:01:44;;;;;;;;;;;16.10;66.30;;;;;;10304537;28;19935;-66
2022/12/02 10:06:46;;;;;;;;;;;16.10;66.20;;;;;;10288285;28;20367;-65
2022/12/02 10:11:48;;;;;;;;;;;16.20;66.20;;;;;;10305328;28;19934;-66
2022/12/02 10:16:50;;;;;;;;;;;16.20;66.00;;;;;;10320604;28;20041;-66
2022/12/02 10:21:52;;;;;;;;;;;16.20;66.00;;;;;;10305230;28;20025;-67
2022/12/02 10:26:56;;;;;;;;;;;16.20;66.00;;;;;;10305064;28;19943;-66
2022/12/02 10:31:57;;;;;;;;;;;16.20;66.00;;;;;;10303552;28;20052;-65
2022/12/02 10:37:35;;;;;;;;;;;16.20;66.10;;;;;;10305076;28;20456;-67
2022/12/02 10:42:37;;;;;;;;;;;16.20;66.00;;;;;;10230574;28;19938;-66
2022/12/02 10:47:38;;;;;;;;;;;16.30;66.00;;;;;;10304181;28;20049;-67
2022/12/02 10:52:44;;;;;;;;;;;16.40;65.80;;;;;;10303959;28;20896;-65
2022/12/02 10:57:47;;;;;;;;;;;16.60;65.60;;;;;;10304700;28;19934;-66
2022/12/02 11:02:50;;;;;;;;;;;16.80;65.30;;;;;;10303551;28;20021;-67
2022/12/02 11:07:54;;;;;;;;;;;16.90;64.90;;;;;;10303028;28;19945;-67
2022/12/02 11:12:58;;;;;;;;;;;17.00;64.60;;;;;;10302972;28;19941;-66
2022/12/02 11:18:00;;;;;;;;;;;17.00;64.40;;;;;;10303000;28;19941;-66
2022/12/02 11:23:02;;;;;;;;;;;17.00;64.30;;;;;;10302891;28;20408;-66
2022/12/02 11:28:16;;;;;;;;;;;17.00;64.40;;;;;;10303267;28;19968;-66
2022/12/02 11:34:00;;;;;;;;;;;17.00;65.50;;;;;;10317211;28;20452;-65
2022/12/02 11:39:08;;;;;;;;;;;17.00;64.50;;;;;;10302462;28;20628;-65
2022/12/02 11:44:20;;;;;;;;;;;17.10;64.40;;;;;;10300749;28;20432;-65
2022/12/02 11:49:26;;;;;;;;;;;17.30;64.20;;;;;;10301733;28;20033;-66
2022/12/02 11:54:28;;;;;;;;;;;17.30;63.90;;;;;;10301825;28;20457;-66
2022/12/02 11:59:32;;;;;;;;;;;17.30;63.90;;;;;;10301807;28;19935;-67
2022/12/02 12:04:33;;;;;;;;;;;17.20;64.00;;;;;;10301186;28;19934;-66
2022/12/02 12:09:35;;;;;;;;;;;17.30;64.10;;;;;;10300842;28;20033;-66
2022/12/02 12:15:09;;;;;;;;;;;17.30;64.10;;;;;;10301737;28;20021;-67
2022/12/02 12:20:11;;;;;;;;;;;17.40;63.80;;;;;;10269042;28;20405;-67
2022/12/02 12:25:34;;;;;;;;;;;17.40;63.60;;;;;;10301029;28;20419;-65
2022/12/02 12:30:35;;;;;;;;;;;17.40;63.60;;;;;;10301566;28;20282;-66
2022/12/02 12:35:37;;;;;;;;;;;17.40;63.70;;;;;;10300824;28;20420;-66
2022/12/02 12:40:39;;;;;;;;;;;17.30;63.80;;;;;;10300529;28;20040;-66
2022/12/02 12:45:41;;;;;;;;;;;17.20;63.90;;;;;;10300630;28;19935;-66
2022/12/02 12:50:43;;;;;;;;;;;17.30;64.10;;;;;;10299933;28;19940;-66
2022/12/02 12:55:45;;;;;;;;;;;17.40;64.00;;;;;;10301398;28;19977;-66
2022/12/02 13:00:47;;;;;;;;;;;17.50;63.80;;;;;;10307346;28;20033;-66
2022/12/02 13:05:48;;;;;;;;;;;17.50;63.60;;;;;;10306065;28;20014;-66
2022/12/02 13:10:50;;;;;;;;;;;17.50;63.50;;;;;;10307602;28;20326;-66
2022/12/02 13:15:52;;;;;;;;;;;17.40;63.50;;;;;;10306982;28;19960;-66
2022/12/02 13:20:53;;;;;;;;;;;17.40;63.60;;;;;;10307144;28;19934;-66
2022/12/02 13:25:55;;;;;;;;;;;17.30;63.70;;;;;;10306914;28;20036;-66
2022/12/02 13:30:57;;;;;;;;;;;17.20;63.70;;;;;;10306254;28;20029;-67
2022/12/02 13:35:59;;;;;;;;;;;17.10;63.80;;;;;;10305718;28;19962;-67
2022/12/02 13:41:01;;;;;;;;;;;17.00;64.00;;;;;;10304523;28;20044;-67
2022/12/02 13:46:02;;;;;;;;;;;16.90;64.10;;;;;;10306154;28;19940;-68
2022/12/02 13:51:04;;;;;;;;;;;16.80;64.20;;;;;;10305724;28;19941;-67
2022/12/02 13:56:06;;;;;;;;;;;16.90;64.60;;;;;;10305536;28;20041;-72
2022/12/02 14:01:08;;;;;;;;;;;17.00;65.60;;;;;;10305881;28;19934;-68
2022/12/02 14:06:10;;;;;;;;;;;17.20;65.80;;;;;;10305127;28;19965;-68
2022/12/02 14:11:11;;;;;;;;;;;17.40;65.50;;;;;;10303226;28;20016;-67
2022/12/02 14:16:13;;;;;;;;;;;17.70;65.00;;;;;;10306332;28;20355;-68
2022/12/02 14:21:15;;;;;;;;;;;17.90;64.60;;;;;;10304863;28;19941;-68
2022/12/02 14:26:17;;;;;;;;;;;17.90;64.30;;;;;;10305079;28;20378;-66
2022/12/02 14:31:19;;;;;;;;;;;17.90;64.20;;;;;;10303835;28;19984;-67
2022/12/02 14:36:27;;;;;;;;;;;17.80;64.30;;;;;;10303935;28;20029;-67
2022/12/02 14:41:29;;;;;;;;;;;17.70;64.40;;;;;;10303600;28;20024;-67
2022/12/02 14:46:31;;;;;;;;;;;17.70;64.50;;;;;;10303645;28;19939;-67
2022/12/02 14:51:32;;;;;;;;;;;17.80;64.60;;;;;;10303058;28;20420;-67
2022/12/02 14:56:34;;;;;;;;;;;17.80;64.50;;;;;;10302742;28;19941;-68
2022/12/02 15:01:36;;;;;;;;;;;17.90;64.50;;;;;;10303761;28;20033;-67
2022/12/02 15:06:38;;;;;;;;;;;17.80;64.50;;;;;;10302962;28;19942;-66
2022/12/02 15:11:39;;;;;;;;;;;17.80;64.60;;;;;;10302699;28;20073;-66
2022/12/02 15:16:41;;;;;;;;;;;17.80;64.60;;;;;;10303506;28;19990;-65
2022/12/02 15:21:43;;;;;;;;;;;17.80;64.60;;;;;;10301652;28;19986;-68
2022/12/02 15:26:45;;;;;;;;;;;17.80;64.20;;;;;;10302062;28;20025;-66
2022/12/02 15:31:51;;;;;;;;;;;17.80;64.10;;;;;;10301818;28;20033;-65
2022/12/02 15:36:53;;;;;;;;;;;17.80;63.90;;;;;;10301903;28;19942;-66
2022/12/02 15:41:54;;;;;;;;;;;17.80;63.90;;;;;;10301454;28;19944;-66
2022/12/02 15:46:56;;;;;;;;;;;17.80;64.00;;;;;;10302365;28;20037;-67
2022/12/02 15:51:58;;;;;;;;;;;17.90;64.40;;;;;;10300573;28;19938;-67
2022/12/02 15:57:00;;;;;;;;;;;18.00;64.30;;;;;;10301914;28;19982;-67
2022/12/02 16:02:01;;;;;;;;;;;18.10;64.10;;;;;;10301371;28;20033;-67
2022/12/02 16:07:03;;;;;;;;;;;18.20;64.70;;;;;;10301477;28;20232;-67
2022/12/02 16:12:05;;;;;;;;;;;18.10;66.20;;;;;;10300564;28;19943;-67
2022/12/02 16:17:07;;;;;;;;;;;18.10;66.50;;;;;;10301523;28;19934;-67
2022/12/02 16:22:09;;;;;;;;;;;18.00;66.60;;;;;;10300162;28;19934;-68
2022/12/02 16:27:10;;;;;;;;;;;17.90;66.50;;;;;;10299559;28;20033;-68
2022/12/02 16:32:12;;;;;;;;;;;17.80;66.30;;;;;;10317689;28;20402;-67
2022/12/02 16:37:21;;;;;;;;;;;17.90;66.40;;;;;;10305925;28;19941;-68
2022/12/02 16:42:23;;;;;;;;;;;18.00;66.60;;;;;;10306789;28;19989;-67
2022/12/02 16:47:25;;;;;;;;;;;18.10;65.10;;;;;;10306094;28;20467;-67
2022/12/02 16:52:26;;;;;;;;;;;18.30;65.20;;;;;;10305448;28;19934;-67
2022/12/02 16:57:28;;;;;;;;;;;18.40;68.30;;;;;;10305493;28;20456;-67
2022/12/02 17:02:30;;;;;;;;;;;18.50;74.70;;;;;;10317760;28;20686;-66
2022/12/02 17:07:33;;;;;;;;;;;18.40;68.20;;;;;;10306470;28;19935;-67
2022/12/02 17:12:34;;;;;;;;;;;18.30;67.50;;;;;;10305081;28;20408;-67
2022/12/02 17:17:36;;;;;;;;;;;18.20;67.00;;;;;;10305486;28;20021;-67
2022/12/02 17:22:47;;;;;;;;;;;18.20;66.90;;;;;;10305770;28;20012;-68
2022/12/02 17:27:49;;;;;;;;;;;18.10;66.90;;;;;;10304347;28;20405;-67
2022/12/02 17:32:50;;;;;;;;;;;18.10;66.50;;;;;;10304950;28;19934;-67
2022/12/02 17:37:57;;;;;;;;;;;18.10;66.20;;;;;;10319256;28;20671;-67
2022/12/02 17:42:59;;;;;;;;;;;18.20;68.00;;;;;;10305745;28;20468;-67
2022/12/02 17:48:01;;;;;;;;;;;18.30;66.80;;;;;;10304194;28;20029;-67
2022/12/02 17:53:03;;;;;;;;;;;18.30;66.60;;;;;;10304730;28;19934;-67
2022/12/02 17:58:04;;;;;;;;;;;18.30;66.20;;;;;;10304464;28;20450;-67
2022/12/02 18:03:06;;;;;;;;;;;18.30;66.20;;;;;;10303842;28;19941;-67
2022/12/02 18:08:08;;;;;;;;;;;18.20;65.90;;;;;;10305100;28;20037;-67
2022/12/02 18:13:10;;;;;;;;;;;18.30;65.80;;;;;;10303247;28;19977;-67
2022/12/02 18:18:12;;;;;;;;;;;18.40;65.30;;;;;;10303314;28;20409;-66
2022/12/02 18:23:13;;;;;;;;;;;18.40;64.90;;;;;;10301864;28;20461;-67
2022/12/02 18:28:15;;;;;;;;;;;18.30;64.70;;;;;;10302552;28;20302;-67
2022/12/02 18:33:17;;;;;;;;;;;18.30;64.80;;;;;;10302883;28;19986;-67
2022/12/02 18:38:19;;;;;;;;;;;18.20;65.00;;;;;;10317559;28;20026;-67
2022/12/02 18:43:20;;;;;;;;;;;18.30;65.20;;;;;;10301858;28;19941;-68
2022/12/02 18:48:22;;;;;;;;;;;18.30;64.90;;;;;;10300309;28;19978;-66
2022/12/02 18:53:24;;;;;;;;;;;18.30;64.80;;;;;;10301763;28;19934;-68
2022/12/02 18:58:26;;;;;;;;;;;18.30;64.80;;;;;;10300457;28;19997;-66
2022/12/02 19:03:28;;;;;;;;;;;18.30;64.80;;;;;;10301844;28;20041;-67
2022/12/02 19:08:30;;;;;;;;;;;18.30;64.80;;;;;;10301818;28;19942;-66
2022/12/02 19:13:31;;;;;;;;;;;18.30;64.70;;;;;;10300985;28;20399;-66
2022/12/02 19:18:33;;;;;;;;;;;18.20;64.40;;;;;;10301074;28;20818;-66
2022/12/02 19:23:35;;;;;;;;;;;18.20;64.40;;;;;;10300864;28;19934;-67
2022/12/02 19:28:36;;;;;;;;;;;18.10;64.50;;;;;;10300854;28;19934;-66
2022/12/02 19:33:38;;;;;;;;;;;18.20;64.60;;;;;;10300870;28;19934;-66
2022/12/02 19:38:40;;;;;;;;;;;18.30;64.50;;;;;;10314611;28;20021;-67
2022/12/02 19:43:42;;;;;;;;;;;18.30;64.30;;;;;;10300193;28;19934;-66
2022/12/02 19:48:43;;;;;;;;;;;18.30;64.10;;;;;;10299393;28;19985;-68
2022/12/02 19:53:45;;;;;;;;;;;18.20;64.10;;;;;;10299249;28;19935;-66
2022/12/02 19:58:47;;;;;;;;;;;18.20;65.10;;;;;;10298957;28;19934;-66
2022/12/02 20:03:48;;;;;;;;;;;18.30;65.60;;;;;;10299679;28;20398;-65
2022/12/02 20:08:50;;;;;;;;;;;18.30;65.20;;;;;;10298255;28;20017;-66
2022/12/02 20:13:52;;;;;;;;;;;18.30;66.00;;;;;;10313901;28;20823;-66
2022/12/02 20:18:54;;;;;;;;;;;18.20;65.10;;;;;;10299878;28;20417;-66
2022/12/02 20:23:56;;;;;;;;;;;18.20;65.20;;;;;;10298762;28;19974;-66
2022/12/02 20:28:58;;;;;;;;;;;18.30;65.40;;;;;;10299666;28;19939;-66
2022/12/02 20:34:00;;;;;;;;;;;18.30;65.20;;;;;;10300758;28;19934;-66
2022/12/02 20:39:01;;;;;;;;;;;18.30;65.10;;;;;;10299114;28;19934;-66
2022/12/02 20:44:03;;;;;;;;;;;18.20;65.20;;;;;;10299037;28;19974;-66
2022/12/02 20:49:05;;;;;;;;;;;18.20;65.20;;;;;;10298217;28;19934;-66
2022/12/02 20:54:06;;;;;;;;;;;18.10;65.30;;;;;;10296506;28;19945;-66
2022/12/02 20:59:08;;;;;;;;;;;18.00;65.40;;;;;;10297052;28;19938;-67
2022/12/02 21:04:10;;;;;;;;;;;18.00;65.30;;;;;;10312359;28;19939;-67
2022/12/02 21:09:14;;;;;;;;;;;17.90;65.30;;;;;;10297458;28;20393;-67
2022/12/02 21:14:16;;;;;;;;;;;17.80;65.70;;;;;;10297678;28;20052;-67
2022/12/02 21:19:18;;;;;;;;;;;17.70;65.70;;;;;;10321234;28;19986;-66
2022/12/02 21:24:22;;;;;;;;;;;17.70;66.00;;;;;;10319739;28;26038;-67
2022/12/02 21:29:23;;;;;;;;;;;17.60;66.10;;;;;;10303952;28;20090;-67
2022/12/02 21:34:25;;;;;;;;;;;17.50;66.20;;;;;;10304237;28;19985;-67
2022/12/02 21:39:27;;;;;;;;;;;17.50;66.30;;;;;;10303994;28;20166;-67
2022/12/02 21:44:28;;;;;;;;;;;17.50;66.40;;;;;;10302754;28;19966;-67
2022/12/02 21:49:30;;;;;;;;;;;17.40;66.70;;;;;;10303974;28;19940;-65
2022/12/02 21:54:32;;;;;;;;;;;17.30;66.70;;;;;;10304211;28;20035;-65
2022/12/02 21:59:33;;;;;;;;;;;17.30;66.70;;;;;;10303369;28;19965;-65
2022/12/02 22:04:35;;;;;;;;;;;17.20;66.60;;;;;;10303877;28;19934;-65
2022/12/02 22:09:37;;;;;;;;;;;17.20;66.60;;;;;;10302293;28;20025;-65
2022/12/02 22:14:39;;;;;;;;;;;17.20;66.60;;;;;;10304092;28;19978;-65
2022/12/02 22:19:40;;;;;;;;;;;17.10;66.50;;;;;;10302999;28;19935;-66
2022/12/02 22:24:42;;;;;;;;;;;17.10;66.60;;;;;;10303262;28;20057;-66
2022/12/02 22:29:44;;;;;;;;;;;17.00;66.40;;;;;;10301579;28;20020;-65
2022/12/02 22:34:46;;;;;;;;;;;17.00;66.40;;;;;;10303058;28;20029;-65
2022/12/02 22:39:48;;;;;;;;;;;16.90;66.20;;;;;;10300830;28;19935;-67
2022/12/02 22:44:50;;;;;;;;;;;16.90;66.20;;;;;;10302085;28;19935;-65
2022/12/02 22:49:52;;;;;;;;;;;16.80;66.10;;;;;;10301799;28;19934;-65
2022/12/02 22:54:54;;;;;;;;;;;16.80;65.90;;;;;;10302021;28;19935;-65
2022/12/02 22:59:56;;;;;;;;;;;16.70;66.00;;;;;;10299921;28;19934;-66
2022/12/02 23:04:57;;;;;;;;;;;16.70;66.00;;;;;;10301467;28;19941;-66
2022/12/02 23:09:59;;;;;;;;;;;16.70;65.80;;;;;;10302368;28;20647;-66
2022/12/02 23:15:01;;;;;;;;;;;16.60;65.90;;;;;;10299632;28;20125;-66
2022/12/02 23:20:23;;;;;;;;;;;16.60;65.70;;;;;;10301521;28;20298;-66
2022/12/02 23:25:24;;;;;;;;;;;16.60;65.70;;;;;;10301827;28;19935;-67
2022/12/02 23:30:26;;;;;;;;;;;16.50;65.70;;;;;;10301350;28;19935;-66
2022/12/02 23:35:30;;;;;;;;;;;16.50;65.60;;;;;;10301391;28;19978;-66
2022/12/02 23:40:31;;;;;;;;;;;16.50;65.60;;;;;;10299603;28;20013;-66
2022/12/02 23:45:33;;;;;;;;;;;16.50;65.80;;;;;;10301581;28;19934;-66
2022/12/02 23:50:35;;;;;;;;;;;16.40;65.80;;;;;;10300638;28;20310;-66
2022/12/02 23:55:37;;;;;;;;;;;16.50;65.70;;;;;;10300376;28;20081;-66
